Terminal Aerodrome Forecast
Issued by NWS Kansas City/Pleasant Hill, MO

Home | Current Version | Previous Version | Text Only | Print | Product List | Glossary On
Versions: 1 2 3 4 5 6 7 8 9 10 11 12 13
000
FTUS43 KEAX 302300
TAFMCI
TAF
KMCI 302320Z 3100/3124 32011KT P6SM FEW060
     FM310300 34011KT P6SM BKN025
     FM311300 01013G21KT P6SM SKC
     FM312000 02012KT P6SM SKC=

USA.gov is the U.S. government's official web portal to all federal, state and local government web resources and services.